createdAt,value
2023-05-18T00:02:16.123Z,97908.28
2023-05-18T00:04:44.225Z,97905.69
2023-05-18T00:07:11.625Z,97906.72
2023-05-18T00:09:38.910Z,97906.28
2023-05-18T00:12:06.758Z,97904.25
2023-05-18T00:14:34.193Z,97911.69
2023-05-18T00:17:01.902Z,97901.09
2023-05-18T00:19:30.369Z,97900.09
2023-05-18T00:21:58.028Z,97898.19
2023-05-18T00:24:25.617Z,97899.69
2023-05-18T00:26:53.046Z,97900.13
2023-05-18T00:29:20.449Z,97896.72
2023-05-18T00:31:47.823Z,97900.34
2023-05-18T00:34:16.777Z,97902.72
2023-05-18T00:36:43.982Z,97897.88
2023-05-18T00:39:11.398Z,97900.56
2023-05-18T00:41:40.144Z,97906.75
2023-05-18T00:44:07.449Z,97907.06
2023-05-18T00:46:36.603Z,97917.34
2023-05-18T00:49:04.600Z,97909.94
2023-05-18T00:51:34.428Z,97902.41
2023-05-18T00:54:03.860Z,97904.03
2023-05-18T00:56:34.322Z,97909.13
2023-05-18T00:59:03.529Z,97918.19
2023-05-18T01:01:37.059Z,97924.66
2023-05-18T01:04:05.000Z,97919.22
2023-05-18T01:06:36.028Z,97926.66
2023-05-18T01:09:07.134Z,97918.75
2023-05-18T01:11:34.443Z,97920.25
2023-05-18T01:14:32.005Z,97919.56
2023-05-18T01:17:25.997Z,97924.91
2023-05-18T01:20:38.166Z,97928.03
2023-05-18T01:23:41.792Z,97917.97
2023-05-18T01:26:15.862Z,97920.41
2023-05-18T01:28:46.705Z,97920.91
2023-05-18T01:31:16.534Z,97921.69
2023-05-18T01:33:46.938Z,97922.28
2023-05-18T01:36:14.355Z,97925.09
2023-05-18T01:38:44.381Z,97923.22
2023-05-18T01:41:26.318Z,97924.81
2023-05-18T01:44:29.329Z,97917.41
2023-05-18T01:47:16.786Z,97921.66
2023-05-18T01:50:02.840Z,97924.59
2023-05-18T01:52:42.930Z,97916.19
2023-05-18T01:55:14.437Z,97919.00
2023-05-18T01:57:46.596Z,97920.06
2023-05-18T02:00:18.844Z,97925.63
2023-05-18T02:02:48.237Z,97931.47
2023-05-18T02:05:18.092Z,97923.06
2023-05-18T02:07:47.442Z,97927.75
2023-05-18T02:10:15.524Z,97929.91
2023-05-18T02:12:42.985Z,97926.47
2023-05-18T02:15:10.791Z,97927.28
2023-05-18T02:17:39.033Z,97935.47
2023-05-18T02:20:08.311Z,97934.31
2023-05-18T02:22:36.535Z,97932.94
2023-05-18T02:25:07.783Z,97935.28
2023-05-18T02:27:36.724Z,97935.78
2023-05-18T02:30:05.883Z,97940.84
2023-05-18T02:32:33.229Z,97937.59
2023-05-18T02:35:03.728Z,97937.25
2023-05-18T03:21:45.583Z,97947.91
2023-05-18T03:25:03.263Z,97945.78
2023-05-18T03:50:08.984Z,97953.63
2023-05-18T03:52:37.364Z,97956.69
2023-05-18T03:55:07.558Z,97959.03
2023-05-18T03:57:35.032Z,97957.94
2023-05-18T04:00:07.685Z,97964.50
2023-05-18T04:02:44.600Z,97960.34
2023-05-18T04:05:14.488Z,97963.63
2023-05-18T04:07:46.719Z,97974.06
2023-05-18T04:10:14.975Z,97971.28
2023-05-18T04:12:43.728Z,97970.00
2023-05-18T04:15:14.875Z,97972.28
2023-05-18T04:17:45.838Z,97975.88
2023-05-18T04:20:14.690Z,97980.13
2023-05-18T04:22:46.781Z,97980.59
2023-05-18T04:25:18.100Z,97972.09
2023-05-18T04:27:45.748Z,97986.31
2023-05-18T04:30:13.936Z,97985.53
2023-05-18T04:32:43.388Z,97989.09
2023-05-18T04:35:12.116Z,97987.00
2023-05-18T04:37:41.055Z,97988.72
2023-05-18T04:40:17.403Z,97997.06
2023-05-18T04:42:48.249Z,97993.31
2023-05-18T04:45:23.044Z,97992.59
2023-05-18T08:53:14.809Z,98096.31
2023-05-18T08:55:44.232Z,98099.28
2023-05-18T08:58:17.816Z,98098.16
2023-05-18T09:00:45.352Z,98096.19
2023-05-18T09:03:14.486Z,98101.13
2023-05-18T09:05:42.704Z,98099.94
2023-05-18T09:08:11.202Z,98106.00
2023-05-18T09:10:40.151Z,98108.84
2023-05-18T09:13:10.070Z,98121.25
2023-05-18T09:15:37.915Z,98112.66
2023-05-18T09:18:05.324Z,98109.31
2023-05-18T09:20:33.164Z,98114.44
2023-05-18T09:23:00.674Z,98120.16
2023-05-18T09:25:31.076Z,98119.38
2023-05-18T09:27:58.518Z,98120.22
2023-05-18T09:30:26.156Z,98126.31
2023-05-18T09:32:53.855Z,98126.16
2023-05-18T09:35:22.808Z,98122.31
2023-05-18T09:37:52.280Z,98128.03
2023-05-18T09:40:20.782Z,98127.63
2023-05-18T09:42:49.724Z,98124.34
2023-05-18T09:45:27.066Z,98124.91
2023-05-18T09:47:54.747Z,98125.97
2023-05-18T09:50:26.741Z,98127.75
2023-05-18T09:52:54.277Z,98126.38
2023-05-18T09:55:21.611Z,98121.19
2023-05-18T09:57:52.333Z,98119.84
2023-05-18T10:00:22.289Z,98113.91
2023-05-18T10:02:52.899Z,98119.56
2023-05-18T14:30:06.500Z,98162.09
2023-05-18T14:32:34.163Z,98149.03
2023-05-18T14:35:01.745Z,98149.75
2023-05-18T14:37:29.165Z,98149.31
2023-05-18T14:39:56.461Z,98150.66
2023-05-18T14:42:23.888Z,98155.81
2023-05-18T14:44:51.553Z,98156.75
2023-05-18T14:47:19.107Z,98157.38
2023-05-18T14:49:46.408Z,98160.81
2023-05-18T14:52:14.420Z,98160.84
2023-05-18T14:54:42.472Z,98161.13
2023-05-18T14:57:09.990Z,98156.97
2023-05-18T14:59:37.311Z,98159.38
2023-05-18T15:02:05.028Z,98154.16
2023-05-18T15:04:32.422Z,98154.69
2023-05-18T15:07:02.186Z,98155.97
2023-05-18T15:09:29.445Z,98155.06
2023-05-18T15:11:56.817Z,98156.19
2023-05-18T15:14:24.305Z,98160.00
2023-05-18T15:16:51.805Z,98150.19
2023-05-18T15:19:19.411Z,98157.19
2023-05-18T15:21:47.020Z,98155.88
2023-05-18T15:24:14.619Z,98166.06
2023-05-18T15:26:42.454Z,98164.81
2023-05-18T15:29:10.067Z,98162.84
2023-05-18T15:31:39.832Z,98155.34
2023-05-18T15:34:07.348Z,98169.13
2023-05-18T15:36:36.483Z,98159.13
2023-05-18T15:40:19.128Z,98157.22
2023-05-18T18:57:55.691Z,98200.66
2023-05-18T19:00:23.307Z,98200.97
2023-05-18T19:02:50.783Z,98196.56
2023-05-18T19:05:22.772Z,98201.91
2023-05-18T19:07:55.045Z,98196.06
2023-05-18T19:10:23.355Z,98201.44
2023-05-18T19:12:50.753Z,98200.06
2023-05-18T19:15:18.568Z,98197.00
2023-05-18T19:17:46.382Z,98202.25
2023-05-18T19:20:13.765Z,98203.09
2023-05-18T19:22:41.476Z,98197.63
2023-05-18T19:25:10.019Z,98195.66
2023-05-18T19:27:37.707Z,98191.81
2023-05-18T19:30:07.334Z,98191.94
2023-05-18T19:32:34.831Z,98191.72
2023-05-18T19:35:02.595Z,98188.22
2023-05-18T19:37:30.193Z,98189.41
2023-05-18T19:39:57.722Z,98201.78
2023-05-18T19:42:25.132Z,98204.28
2023-05-18T19:44:52.494Z,98194.75
2023-05-18T19:47:20.054Z,98191.91
2023-05-18T19:49:47.909Z,98197.22
2023-05-18T19:52:15.971Z,98193.34
2023-05-18T19:54:43.466Z,98188.75
2023-05-18T19:57:10.883Z,98182.84
2023-05-18T19:59:38.675Z,98185.69
2023-05-18T20:02:09.240Z,98189.56
2023-05-18T20:04:37.693Z,98194.38
2023-05-18T20:07:05.439Z,98192.47
2023-05-18T20:09:33.070Z,98195.13
2023-05-18T20:12:05.537Z,98192.09
2023-05-18T20:16:18.729Z,98201.91
